sensor_id;sensor_type;location;lat;lon;timestamp;P1;durP1;ratioP1;P2;durP2;ratioP2
41219;SDS011;26951;47.338;9.196;2023-07-13T00:01:18;5.57;;;2.95;;
41219;SDS011;26951;47.338;9.196;2023-07-13T00:04:03;4.03;;;2.90;;
41219;SDS011;26951;47.338;9.196;2023-07-13T00:06:47;3.53;;;2.90;;
41219;SDS011;26951;47.338;9.196;2023-07-13T00:09:31;3.25;;;2.55;;
41219;SDS011;26951;47.338;9.196;2023-07-13T00:12:26;5.10;;;2.70;;
41219;SDS011;26951;47.338;9.196;2023-07-13T00:15:20;4.05;;;2.95;;
41219;SDS011;26951;47.338;9.196;2023-07-13T00:20:52;3.28;;;2.78;;
41219;SDS011;26951;47.338;9.196;2023-07-13T00:23:37;3.15;;;2.55;;
41219;SDS011;26951;47.338;9.196;2023-07-13T00:26:23;4.15;;;2.85;;
41219;SDS011;26951;47.338;9.196;2023-07-13T00:29:07;3.90;;;2.75;;
41219;SDS011;26951;47.338;9.196;2023-07-13T00:31:52;3.22;;;2.63;;
41219;SDS011;26951;47.338;9.196;2023-07-13T00:34:37;3.53;;;2.90;;
41219;SDS011;26951;47.338;9.196;2023-07-13T00:37:22;3.80;;;2.72;;
41219;SDS011;26951;47.338;9.196;2023-07-13T00:40:06;4.95;;;2.97;;
41219;SDS011;26951;47.338;9.196;2023-07-13T00:48:21;4.30;;;2.97;;
41219;SDS011;26951;47.338;9.196;2023-07-13T00:51:08;3.80;;;2.70;;
41219;SDS011;26951;47.338;9.196;2023-07-13T00:53:54;3.17;;;2.45;;
41219;SDS011;26951;47.338;9.196;2023-07-13T00:56:41;4.75;;;3.00;;
41219;SDS011;26951;47.338;9.196;2023-07-13T00:59:28;4.30;;;2.55;;
41219;SDS011;26951;47.338;9.196;2023-07-13T01:02:20;3.85;;;3.00;;
41219;SDS011;26951;47.338;9.196;2023-07-13T01:05:09;5.05;;;3.00;;
41219;SDS011;26951;47.338;9.196;2023-07-13T01:07:54;3.40;;;2.72;;
41219;SDS011;26951;47.338;9.196;2023-07-13T01:10:39;4.03;;;2.50;;
41219;SDS011;26951;47.338;9.196;2023-07-13T01:13:23;7.10;;;2.90;;
41219;SDS011;26951;47.338;9.196;2023-07-13T01:16:27;4.40;;;3.17;;
41219;SDS011;26951;47.338;9.196;2023-07-13T01:22:23;3.38;;;2.50;;
41219;SDS011;26951;47.338;9.196;2023-07-13T01:25:09;6.65;;;3.13;;
41219;SDS011;26951;47.338;9.196;2023-07-13T01:27:53;3.33;;;2.67;;
41219;SDS011;26951;47.338;9.196;2023-07-13T01:30:38;4.00;;;2.40;;
41219;SDS011;26951;47.338;9.196;2023-07-13T01:33:24;4.32;;;2.78;;
41219;SDS011;26951;47.338;9.196;2023-07-13T01:36:09;4.63;;;2.90;;
41219;SDS011;26951;47.338;9.196;2023-07-13T01:41:38;3.88;;;3.13;;
41219;SDS011;26951;47.338;9.196;2023-07-13T01:44:23;3.13;;;2.67;;
41219;SDS011;26951;47.338;9.196;2023-07-13T01:47:07;3.50;;;2.78;;
41219;SDS011;26951;47.338;9.196;2023-07-13T01:49:51;2.60;;;2.38;;
41219;SDS011;26951;47.338;9.196;2023-07-13T01:52:36;3.80;;;2.33;;
41219;SDS011;26951;47.338;9.196;2023-07-13T01:55:20;3.17;;;2.50;;
41219;SDS011;26951;47.338;9.196;2023-07-13T01:58:05;3.60;;;2.83;;
41219;SDS011;26951;47.338;9.196;2023-07-13T02:00:51;4.20;;;2.67;;
41219;SDS011;26951;47.338;9.196;2023-07-13T02:03:35;3.35;;;2.70;;
41219;SDS011;26951;47.338;9.196;2023-07-13T02:06:19;3.42;;;2.58;;
41219;SDS011;26951;47.338;9.196;2023-07-13T02:09:03;4.35;;;2.55;;
41219;SDS011;26951;47.338;9.196;2023-07-13T02:11:48;4.60;;;3.08;;
41219;SDS011;26951;47.338;9.196;2023-07-13T02:14:32;4.15;;;2.80;;
41219;SDS011;26951;47.338;9.196;2023-07-13T02:17:16;5.13;;;2.50;;
41219;SDS011;26951;47.338;9.196;2023-07-13T02:20:00;3.38;;;2.70;;
41219;SDS011;26951;47.338;9.196;2023-07-13T02:22:44;3.55;;;2.40;;
41219;SDS011;26951;47.338;9.196;2023-07-13T02:25:28;3.13;;;2.60;;
41219;SDS011;26951;47.338;9.196;2023-07-13T02:28:13;3.60;;;2.60;;
41219;SDS011;26951;47.338;9.196;2023-07-13T02:31:03;2.47;;;2.28;;
41219;SDS011;26951;47.338;9.196;2023-07-13T02:33:49;3.47;;;2.63;;
41219;SDS011;26951;47.338;9.196;2023-07-13T02:36:33;3.60;;;2.63;;
41219;SDS011;26951;47.338;9.196;2023-07-13T02:39:17;3.22;;;2.40;;
41219;SDS011;26951;47.338;9.196;2023-07-13T02:42:02;3.40;;;2.53;;
41219;SDS011;26951;47.338;9.196;2023-07-13T02:44:46;5.72;;;2.58;;
41219;SDS011;26951;47.338;9.196;2023-07-13T02:47:32;3.53;;;2.97;;
41219;SDS011;26951;47.338;9.196;2023-07-13T02:50:17;3.15;;;2.45;;
41219;SDS011;26951;47.338;9.196;2023-07-13T02:53:01;4.60;;;2.53;;
41219;SDS011;26951;47.338;9.196;2023-07-13T02:55:45;2.95;;;2.25;;
41219;SDS011;26951;47.338;9.196;2023-07-13T02:58:31;3.83;;;2.92;;
41219;SDS011;26951;47.338;9.196;2023-07-13T03:01:15;3.25;;;2.50;;
41219;SDS011;26951;47.338;9.196;2023-07-13T03:04:02;3.10;;;2.53;;
41219;SDS011;26951;47.338;9.196;2023-07-13T03:06:47;3.28;;;2.78;;
41219;SDS011;26951;47.338;9.196;2023-07-13T03:09:31;4.07;;;2.70;;
41219;SDS011;26951;47.338;9.196;2023-07-13T03:12:18;3.47;;;2.60;;
41219;SDS011;26951;47.338;9.196;2023-07-13T03:15:03;3.22;;;2.45;;
41219;SDS011;26951;47.338;9.196;2023-07-13T03:17:47;3.28;;;2.45;;
41219;SDS011;26951;47.338;9.196;2023-07-13T03:20:33;3.88;;;2.63;;
41219;SDS011;26951;47.338;9.196;2023-07-13T03:23:18;3.20;;;2.35;;
41219;SDS011;26951;47.338;9.196;2023-07-13T03:26:03;4.80;;;2.87;;
41219;SDS011;26951;47.338;9.196;2023-07-13T03:28:52;3.97;;;2.33;;
41219;SDS011;26951;47.338;9.196;2023-07-13T03:31:36;5.68;;;2.70;;
41219;SDS011;26951;47.338;9.196;2023-07-13T03:34:20;3.28;;;2.72;;
41219;SDS011;26951;47.338;9.196;2023-07-13T03:37:04;2.90;;;2.50;;
41219;SDS011;26951;47.338;9.196;2023-07-13T03:39:49;4.18;;;2.72;;
41219;SDS011;26951;47.338;9.196;2023-07-13T03:42:33;2.95;;;2.65;;
41219;SDS011;26951;47.338;9.196;2023-07-13T03:45:18;2.88;;;2.45;;
41219;SDS011;26951;47.338;9.196;2023-07-13T03:48:02;4.25;;;2.25;;
41219;SDS011;26951;47.338;9.196;2023-07-13T03:50:47;4.63;;;2.70;;
41219;SDS011;26951;47.338;9.196;2023-07-13T03:56:18;4.63;;;2.80;;
41219;SDS011;26951;47.338;9.196;2023-07-13T03:59:02;2.70;;;2.40;;
41219;SDS011;26951;47.338;9.196;2023-07-13T04:01:46;3.35;;;2.42;;
41219;SDS011;26951;47.338;9.196;2023-07-13T04:04:30;3.45;;;2.47;;
41219;SDS011;26951;47.338;9.196;2023-07-13T04:07:14;3.40;;;2.58;;
41219;SDS011;26951;47.338;9.196;2023-07-13T04:09:58;2.78;;;2.30;;
41219;SDS011;26951;47.338;9.196;2023-07-13T04:12:42;4.28;;;2.70;;
41219;SDS011;26951;47.338;9.196;2023-07-13T04:15:29;3.25;;;2.67;;
41219;SDS011;26951;47.338;9.196;2023-07-13T04:18:14;3.20;;;2.28;;
41219;SDS011;26951;47.338;9.196;2023-07-13T04:20:58;3.00;;;2.67;;
41219;SDS011;26951;47.338;9.196;2023-07-13T04:23:43;3.47;;;2.35;;
41219;SDS011;26951;47.338;9.196;2023-07-13T04:26:28;5.40;;;2.47;;
41219;SDS011;26951;47.338;9.196;2023-07-13T04:29:12;3.08;;;2.58;;
41219;SDS011;26951;47.338;9.196;2023-07-13T04:31:57;3.38;;;2.60;;
41219;SDS011;26951;47.338;9.196;2023-07-13T04:34:41;4.00;;;2.60;;
41219;SDS011;26951;47.338;9.196;2023-07-13T04:37:25;4.40;;;3.38;;
41219;SDS011;26951;47.338;9.196;2023-07-13T04:40:10;3.70;;;2.80;;
41219;SDS011;26951;47.338;9.196;2023-07-13T04:42:55;5.32;;;3.50;;
41219;SDS011;26951;47.338;9.196;2023-07-13T04:45:40;2.95;;;2.50;;
41219;SDS011;26951;47.338;9.196;2023-07-13T04:48:25;4.25;;;2.97;;
41219;SDS011;26951;47.338;9.196;2023-07-13T04:51:09;5.03;;;2.78;;
41219;SDS011;26951;47.338;9.196;2023-07-13T04:53:54;4.00;;;3.03;;
41219;SDS011;26951;47.338;9.196;2023-07-13T04:56:38;2.83;;;2.53;;
41219;SDS011;26951;47.338;9.196;2023-07-13T04:59:23;4.35;;;3.15;;
41219;SDS011;26951;47.338;9.196;2023-07-13T05:02:07;3.15;;;2.72;;
41219;SDS011;26951;47.338;9.196;2023-07-13T05:04:51;3.17;;;2.53;;
41219;SDS011;26951;47.338;9.196;2023-07-13T05:07:36;4.20;;;2.70;;
41219;SDS011;26951;47.338;9.196;2023-07-13T05:10:20;3.20;;;2.70;;
41219;SDS011;26951;47.338;9.196;2023-07-13T05:13:04;3.08;;;2.45;;
41219;SDS011;26951;47.338;9.196;2023-07-13T05:15:58;3.75;;;2.55;;
41219;SDS011;26951;47.338;9.196;2023-07-13T05:18:46;3.03;;;2.55;;
41219;SDS011;26951;47.338;9.196;2023-07-13T05:21:30;2.80;;;2.35;;
41219;SDS011;26951;47.338;9.196;2023-07-13T05:24:14;4.13;;;2.50;;
41219;SDS011;26951;47.338;9.196;2023-07-13T05:26:58;3.88;;;2.45;;
41219;SDS011;26951;47.338;9.196;2023-07-13T05:29:43;3.10;;;2.53;;
41219;SDS011;26951;47.338;9.196;2023-07-13T05:32:27;3.97;;;2.22;;
41219;SDS011;26951;47.338;9.196;2023-07-13T05:35:11;3.22;;;2.42;;
41219;SDS011;26951;47.338;9.196;2023-07-13T05:37:56;5.23;;;2.77;;
41219;SDS011;26951;47.338;9.196;2023-07-13T05:40:42;2.78;;;2.25;;
41219;SDS011;26951;47.338;9.196;2023-07-13T05:43:27;3.70;;;2.47;;
41219;SDS011;26951;47.338;9.196;2023-07-13T05:46:11;4.13;;;2.10;;
41219;SDS011;26951;47.338;9.196;2023-07-13T05:48:55;4.05;;;3.00;;
41219;SDS011;26951;47.338;9.196;2023-07-13T05:51:40;3.93;;;2.73;;
41219;SDS011;26951;47.338;9.196;2023-07-13T05:54:24;3.78;;;2.72;;
41219;SDS011;26951;47.338;9.196;2023-07-13T05:57:08;3.13;;;2.35;;
41219;SDS011;26951;47.338;9.196;2023-07-13T05:59:52;3.35;;;2.78;;
41219;SDS011;26951;47.338;9.196;2023-07-13T06:02:37;3.58;;;2.80;;
41219;SDS011;26951;47.338;9.196;2023-07-13T06:05:21;4.22;;;2.78;;
41219;SDS011;26951;47.338;9.196;2023-07-13T06:08:07;4.13;;;2.33;;
41219;SDS011;26951;47.338;9.196;2023-07-13T06:10:52;3.10;;;2.53;;
41219;SDS011;26951;47.338;9.196;2023-07-13T06:13:37;4.57;;;2.60;;
41219;SDS011;26951;47.338;9.196;2023-07-13T06:16:21;3.95;;;2.50;;
41219;SDS011;26951;47.338;9.196;2023-07-13T06:19:06;2.45;;;1.95;;
41219;SDS011;26951;47.338;9.196;2023-07-13T06:21:50;2.75;;;2.20;;
41219;SDS011;26951;47.338;9.196;2023-07-13T06:24:35;2.45;;;2.25;;
41219;SDS011;26951;47.338;9.196;2023-07-13T06:27:19;3.35;;;2.63;;
41219;SDS011;26951;47.338;9.196;2023-07-13T06:30:03;3.73;;;3.00;;
41219;SDS011;26951;47.338;9.196;2023-07-13T06:32:48;4.18;;;2.38;;
41219;SDS011;26951;47.338;9.196;2023-07-13T06:35:33;3.65;;;2.70;;
41219;SDS011;26951;47.338;9.196;2023-07-13T06:38:17;4.32;;;2.60;;
41219;SDS011;26951;47.338;9.196;2023-07-13T06:41:01;3.65;;;2.50;;
41219;SDS011;26951;47.338;9.196;2023-07-13T06:43:45;3.05;;;2.20;;
41219;SDS011;26951;47.338;9.196;2023-07-13T06:46:29;3.58;;;2.60;;
41219;SDS011;26951;47.338;9.196;2023-07-13T06:49:13;3.85;;;2.80;;
41219;SDS011;26951;47.338;9.196;2023-07-13T06:51:58;4.38;;;2.85;;
41219;SDS011;26951;47.338;9.196;2023-07-13T06:54:42;3.28;;;2.28;;
41219;SDS011;26951;47.338;9.196;2023-07-13T06:57:26;3.63;;;2.35;;
41219;SDS011;26951;47.338;9.196;2023-07-13T07:00:11;3.22;;;2.42;;
41219;SDS011;26951;47.338;9.196;2023-07-13T07:02:56;3.22;;;2.33;;
41219;SDS011;26951;47.338;9.196;2023-07-13T07:05:40;4.15;;;2.55;;
41219;SDS011;26951;47.338;9.196;2023-07-13T07:08:24;5.47;;;2.78;;
41219;SDS011;26951;47.338;9.196;2023-07-13T07:11:11;4.50;;;2.45;;
41219;SDS011;26951;47.338;9.196;2023-07-13T07:13:56;3.40;;;2.20;;
41219;SDS011;26951;47.338;9.196;2023-07-13T07:16:40;3.40;;;2.42;;
41219;SDS011;26951;47.338;9.196;2023-07-13T07:19:24;3.25;;;2.78;;
41219;SDS011;26951;47.338;9.196;2023-07-13T07:22:08;4.25;;;2.80;;
41219;SDS011;26951;47.338;9.196;2023-07-13T07:24:53;5.15;;;3.05;;
41219;SDS011;26951;47.338;9.196;2023-07-13T07:27:37;2.88;;;2.47;;
41219;SDS011;26951;47.338;9.196;2023-07-13T07:30:22;3.20;;;2.38;;
41219;SDS011;26951;47.338;9.196;2023-07-13T07:33:07;3.50;;;2.70;;
41219;SDS011;26951;47.338;9.196;2023-07-13T07:35:51;3.58;;;2.47;;
41219;SDS011;26951;47.338;9.196;2023-07-13T07:38:35;3.55;;;2.60;;
41219;SDS011;26951;47.338;9.196;2023-07-13T07:41:19;3.92;;;2.40;;
41219;SDS011;26951;47.338;9.196;2023-07-13T07:44:04;2.72;;;2.40;;
41219;SDS011;26951;47.338;9.196;2023-07-13T07:46:48;2.90;;;2.22;;
41219;SDS011;26951;47.338;9.196;2023-07-13T07:49:33;2.58;;;2.30;;
41219;SDS011;26951;47.338;9.196;2023-07-13T07:52:18;3.15;;;2.50;;
41219;SDS011;26951;47.338;9.196;2023-07-13T07:55:03;4.07;;;3.07;;
41219;SDS011;26951;47.338;9.196;2023-07-13T07:57:49;3.42;;;2.40;;
41219;SDS011;26951;47.338;9.196;2023-07-13T08:00:33;4.35;;;2.80;;
41219;SDS011;26951;47.338;9.196;2023-07-13T08:06:03;2.90;;;2.30;;
41219;SDS011;26951;47.338;9.196;2023-07-13T08:08:47;2.85;;;2.20;;
41219;SDS011;26951;47.338;9.196;2023-07-13T08:11:31;2.47;;;1.75;;
41219;SDS011;26951;47.338;9.196;2023-07-13T08:14:15;2.00;;;1.60;;
41219;SDS011;26951;47.338;9.196;2023-07-13T08:16:59;1.63;;;1.45;;
41219;SDS011;26951;47.338;9.196;2023-07-13T08:19:43;2.00;;;1.30;;
41219;SDS011;26951;47.338;9.196;2023-07-13T08:22:28;2.00;;;1.52;;
41219;SDS011;26951;47.338;9.196;2023-07-13T08:25:12;1.95;;;1.48;;
41219;SDS011;26951;47.338;9.196;2023-07-13T08:27:56;1.40;;;1.30;;
41219;SDS011;26951;47.338;9.196;2023-07-13T08:30:40;2.35;;;1.50;;
41219;SDS011;26951;47.338;9.196;2023-07-13T08:33:24;1.70;;;1.40;;
41219;SDS011;26951;47.338;9.196;2023-07-13T08:36:09;1.42;;;1.10;;
41219;SDS011;26951;47.338;9.196;2023-07-13T08:38:53;1.58;;;1.27;;
41219;SDS011;26951;47.338;9.196;2023-07-13T08:41:38;2.15;;;1.58;;
41219;SDS011;26951;47.338;9.196;2023-07-13T08:44:27;2.33;;;2.00;;
41219;SDS011;26951;47.338;9.196;2023-07-13T08:47:34;1.70;;;1.60;;
41219;SDS011;26951;47.338;9.196;2023-07-13T08:50:24;2.10;;;1.38;;
41219;SDS011;26951;47.338;9.196;2023-07-13T08:53:12;1.30;;;1.20;;
41219;SDS011;26951;47.338;9.196;2023-07-13T08:55:59;1.55;;;1.45;;
41219;SDS011;26951;47.338;9.196;2023-07-13T08:58:44;1.63;;;1.33;;
41219;SDS011;26951;47.338;9.196;2023-07-13T09:01:40;1.30;;;1.00;;
41219;SDS011;26951;47.338;9.196;2023-07-13T09:07:41;1.65;;;1.33;;
41219;SDS011;26951;47.338;9.196;2023-07-13T09:16:46;1.63;;;1.10;;
41219;SDS011;26951;47.338;9.196;2023-07-13T09:19:32;1.63;;;1.23;;
41219;SDS011;26951;47.338;9.196;2023-07-13T09:22:19;1.35;;;1.23;;
41219;SDS011;26951;47.338;9.196;2023-07-13T09:25:18;1.42;;;1.30;;
41219;SDS011;26951;47.338;9.196;2023-07-13T09:28:15;2.83;;;1.38;;
41219;SDS011;26951;47.338;9.196;2023-07-13T09:34:09;2.28;;;1.33;;
41219;SDS011;26951;47.338;9.196;2023-07-13T09:36:54;3.13;;;1.58;;
41219;SDS011;26951;47.338;9.196;2023-07-13T09:39:39;1.70;;;1.58;;
41219;SDS011;26951;47.338;9.196;2023-07-13T09:42:25;3.00;;;1.80;;
41219;SDS011;26951;47.338;9.196;2023-07-13T09:45:10;1.95;;;1.63;;
41219;SDS011;26951;47.338;9.196;2023-07-13T09:48:10;1.83;;;1.40;;
41219;SDS011;26951;47.338;9.196;2023-07-13T09:50:57;1.73;;;1.55;;
41219;SDS011;26951;47.338;9.196;2023-07-13T09:53:58;1.45;;;1.17;;
41219;SDS011;26951;47.338;9.196;2023-07-13T09:56:43;2.35;;;1.65;;
41219;SDS011;26951;47.338;9.196;2023-07-13T09:59:29;1.60;;;1.48;;
41219;SDS011;26951;47.338;9.196;2023-07-13T10:02:30;1.85;;;1.40;;
41219;SDS011;26951;47.338;9.196;2023-07-13T10:05:16;1.65;;;1.10;;
41219;SDS011;26951;47.338;9.196;2023-07-13T10:08:01;2.17;;;1.50;;
41219;SDS011;26951;47.338;9.196;2023-07-13T10:10:45;2.03;;;1.52;;
41219;SDS011;26951;47.338;9.196;2023-07-13T10:13:37;2.00;;;1.70;;
41219;SDS011;26951;47.338;9.196;2023-07-13T10:16:44;1.88;;;1.50;;
41219;SDS011;26951;47.338;9.196;2023-07-13T10:19:29;2.70;;;1.80;;
41219;SDS011;26951;47.338;9.196;2023-07-13T10:23:20;1.73;;;1.48;;
41219;SDS011;26951;47.338;9.196;2023-07-13T10:25:38;7.22;;;3.28;;
41219;SDS011;26951;47.338;9.196;2023-07-13T10:28:30;3.28;;;2.40;;
41219;SDS011;26951;47.338;9.196;2023-07-13T10:31:18;2.55;;;2.15;;
41219;SDS011;26951;47.338;9.196;2023-07-13T10:34:04;2.05;;;1.85;;
41219;SDS011;26951;47.338;9.196;2023-07-13T10:39:33;1.83;;;1.52;;
41219;SDS011;26951;47.338;9.196;2023-07-13T10:45:39;2.53;;;2.00;;
41219;SDS011;26951;47.338;9.196;2023-07-13T10:48:24;2.47;;;2.03;;
41219;SDS011;26951;47.338;9.196;2023-07-13T10:51:08;2.33;;;1.58;;
41219;SDS011;26951;47.338;9.196;2023-07-13T10:54:30;2.10;;;1.50;;
41219;SDS011;26951;47.338;9.196;2023-07-13T10:57:15;2.97;;;1.67;;
41219;SDS011;26951;47.338;9.196;2023-07-13T11:03:01;2.17;;;1.98;;
41219;SDS011;26951;47.338;9.196;2023-07-13T11:05:48;2.38;;;2.00;;
41219;SDS011;26951;47.338;9.196;2023-07-13T11:08:36;2.58;;;2.10;;
41219;SDS011;26951;47.338;9.196;2023-07-13T11:11:36;2.92;;;1.95;;
41219;SDS011;26951;47.338;9.196;2023-07-13T11:14:28;3.70;;;2.00;;
41219;SDS011;26951;47.338;9.196;2023-07-13T11:20:35;2.20;;;1.85;;
41219;SDS011;26951;47.338;9.196;2023-07-13T11:23:29;2.45;;;1.83;;
41219;SDS011;26951;47.338;9.196;2023-07-13T11:29:27;2.30;;;1.75;;
41219;SDS011;26951;47.338;9.196;2023-07-13T11:32:21;2.88;;;2.00;;
41219;SDS011;26951;47.338;9.196;2023-07-13T11:35:13;2.28;;;1.60;;
41219;SDS011;26951;47.338;9.196;2023-07-13T11:38:03;2.17;;;1.77;;
41219;SDS011;26951;47.338;9.196;2023-07-13T11:40:59;1.83;;;1.67;;
41219;SDS011;26951;47.338;9.196;2023-07-13T11:43:51;2.38;;;2.10;;
41219;SDS011;26951;47.338;9.196;2023-07-13T11:46:38;1.75;;;1.52;;
41219;SDS011;26951;47.338;9.196;2023-07-13T11:49:25;2.03;;;1.83;;
41219;SDS011;26951;47.338;9.196;2023-07-13T11:52:15;1.67;;;1.40;;
41219;SDS011;26951;47.338;9.196;2023-07-13T11:55:04;2.25;;;1.88;;
41219;SDS011;26951;47.338;9.196;2023-07-13T11:58:02;1.90;;;1.58;;
41219;SDS011;26951;47.338;9.196;2023-07-13T12:00:46;2.13;;;1.77;;
41219;SDS011;26951;47.338;9.196;2023-07-13T12:03:32;3.33;;;1.83;;
41219;SDS011;26951;47.338;9.196;2023-07-13T12:06:23;7.05;;;3.08;;
41219;SDS011;26951;47.338;9.196;2023-07-13T12:09:10;3.10;;;2.45;;
41219;SDS011;26951;47.338;9.196;2023-07-13T12:11:56;4.68;;;2.30;;
41219;SDS011;26951;47.338;9.196;2023-07-13T12:14:43;6.50;;;3.03;;
41219;SDS011;26951;47.338;9.196;2023-07-13T12:17:28;3.38;;;2.13;;
41219;SDS011;26951;47.338;9.196;2023-07-13T12:20:17;4.55;;;2.50;;
41219;SDS011;26951;47.338;9.196;2023-07-13T12:23:15;4.03;;;2.33;;
41219;SDS011;26951;47.338;9.196;2023-07-13T12:26:05;2.30;;;1.83;;
41219;SDS011;26951;47.338;9.196;2023-07-13T12:28:52;8.02;;;2.78;;
41219;SDS011;26951;47.338;9.196;2023-07-13T12:31:42;2.17;;;1.85;;
41219;SDS011;26951;47.338;9.196;2023-07-13T12:34:30;1.88;;;1.50;;
41219;SDS011;26951;47.338;9.196;2023-07-13T12:37:14;1.50;;;1.40;;
41219;SDS011;26951;47.338;9.196;2023-07-13T12:39:59;3.30;;;1.67;;
41219;SDS011;26951;47.338;9.196;2023-07-13T12:42:43;1.77;;;1.40;;
41219;SDS011;26951;47.338;9.196;2023-07-13T12:45:30;1.80;;;1.60;;
41219;SDS011;26951;47.338;9.196;2023-07-13T12:48:15;3.03;;;1.75;;
41219;SDS011;26951;47.338;9.196;2023-07-13T12:51:00;1.92;;;1.65;;
41219;SDS011;26951;47.338;9.196;2023-07-13T12:53:49;2.15;;;1.60;;
41219;SDS011;26951;47.338;9.196;2023-07-13T12:56:38;1.60;;;1.45;;
41219;SDS011;26951;47.338;9.196;2023-07-13T12:59:23;1.33;;;1.20;;
41219;SDS011;26951;47.338;9.196;2023-07-13T13:02:29;1.65;;;1.45;;
41219;SDS011;26951;47.338;9.196;2023-07-13T13:05:17;2.13;;;1.30;;
41219;SDS011;26951;47.338;9.196;2023-07-13T13:08:01;1.20;;;1.10;;
41219;SDS011;26951;47.338;9.196;2023-07-13T13:10:45;1.65;;;1.30;;
41219;SDS011;26951;47.338;9.196;2023-07-13T13:13:30;1.27;;;1.17;;
41219;SDS011;26951;47.338;9.196;2023-07-13T13:19:14;1.30;;;1.20;;
41219;SDS011;26951;47.338;9.196;2023-07-13T13:22:01;1.27;;;1.17;;
41219;SDS011;26951;47.338;9.196;2023-07-13T13:24:46;1.60;;;1.38;;
41219;SDS011;26951;47.338;9.196;2023-07-13T13:27:30;1.63;;;1.50;;
41219;SDS011;26951;47.338;9.196;2023-07-13T13:30:16;3.72;;;1.60;;
41219;SDS011;26951;47.338;9.196;2023-07-13T13:33:01;1.80;;;1.30;;
41219;SDS011;26951;47.338;9.196;2023-07-13T13:35:45;3.25;;;1.58;;
41219;SDS011;26951;47.338;9.196;2023-07-13T13:38:30;1.45;;;1.35;;
41219;SDS011;26951;47.338;9.196;2023-07-13T13:41:20;1.77;;;1.35;;
41219;SDS011;26951;47.338;9.196;2023-07-13T13:44:08;2.40;;;1.90;;
41219;SDS011;26951;47.338;9.196;2023-07-13T13:46:54;2.95;;;1.70;;
41219;SDS011;26951;47.338;9.196;2023-07-13T13:49:39;2.05;;;1.70;;
41219;SDS011;26951;47.338;9.196;2023-07-13T13:52:24;1.77;;;1.42;;
41219;SDS011;26951;47.338;9.196;2023-07-13T13:55:19;2.90;;;1.50;;
41219;SDS011;26951;47.338;9.196;2023-07-13T13:58:05;6.18;;;1.90;;
41219;SDS011;26951;47.338;9.196;2023-07-13T14:00:50;1.38;;;1.27;;
41219;SDS011;26951;47.338;9.196;2023-07-13T14:03:34;2.67;;;1.70;;
41219;SDS011;26951;47.338;9.196;2023-07-13T14:06:18;2.60;;;1.90;;
41219;SDS011;26951;47.338;9.196;2023-07-13T14:09:04;14.65;;;3.58;;
41219;SDS011;26951;47.338;9.196;2023-07-13T14:11:52;3.13;;;1.55;;
41219;SDS011;26951;47.338;9.196;2023-07-13T14:14:36;1.95;;;1.30;;
41219;SDS011;26951;47.338;9.196;2023-07-13T14:17:22;1.90;;;1.45;;
41219;SDS011;26951;47.338;9.196;2023-07-13T14:20:11;6.60;;;2.17;;
41219;SDS011;26951;47.338;9.196;2023-07-13T14:22:55;4.22;;;2.10;;
41219;SDS011;26951;47.338;9.196;2023-07-13T14:25:40;9.98;;;2.45;;
41219;SDS011;26951;47.338;9.196;2023-07-13T14:28:24;1.75;;;1.50;;
41219;SDS011;26951;47.338;9.196;2023-07-13T14:31:13;4.13;;;1.92;;
41219;SDS011;26951;47.338;9.196;2023-07-13T14:33:58;3.80;;;1.52;;
41219;SDS011;26951;47.338;9.196;2023-07-13T14:36:43;3.38;;;1.70;;
41219;SDS011;26951;47.338;9.196;2023-07-13T14:39:30;1.50;;;1.40;;
41219;SDS011;26951;47.338;9.196;2023-07-13T14:42:15;5.40;;;2.00;;
41219;SDS011;26951;47.338;9.196;2023-07-13T14:44:59;3.30;;;1.63;;
41219;SDS011;26951;47.338;9.196;2023-07-13T14:47:43;2.17;;;1.58;;
41219;SDS011;26951;47.338;9.196;2023-07-13T14:50:30;1.52;;;1.33;;
41219;SDS011;26951;47.338;9.196;2023-07-13T14:53:15;1.40;;;1.23;;
41219;SDS011;26951;47.338;9.196;2023-07-13T14:56:00;1.90;;;1.65;;
41219;SDS011;26951;47.338;9.196;2023-07-13T14:58:44;1.98;;;1.50;;
41219;SDS011;26951;47.338;9.196;2023-07-13T15:01:28;2.00;;;1.70;;
41219;SDS011;26951;47.338;9.196;2023-07-13T15:04:14;1.77;;;1.50;;
41219;SDS011;26951;47.338;9.196;2023-07-13T15:09:45;1.35;;;1.25;;
41219;SDS011;26951;47.338;9.196;2023-07-13T15:12:31;1.88;;;1.40;;
41219;SDS011;26951;47.338;9.196;2023-07-13T15:15:15;2.42;;;1.33;;
41219;SDS011;26951;47.338;9.196;2023-07-13T15:17:59;1.80;;;1.70;;
41219;SDS011;26951;47.338;9.196;2023-07-13T15:20:45;2.20;;;1.48;;
41219;SDS011;26951;47.338;9.196;2023-07-13T15:23:30;1.50;;;1.40;;
41219;SDS011;26951;47.338;9.196;2023-07-13T15:26:15;1.55;;;1.40;;
41219;SDS011;26951;47.338;9.196;2023-07-13T15:29:01;2.75;;;1.98;;
41219;SDS011;26951;47.338;9.196;2023-07-13T15:31:46;3.88;;;1.90;;
41219;SDS011;26951;47.338;9.196;2023-07-13T15:34:31;1.33;;;1.20;;
41219;SDS011;26951;47.338;9.196;2023-07-13T15:37:16;2.67;;;1.70;;
41219;SDS011;26951;47.338;9.196;2023-07-13T15:40:01;1.65;;;1.40;;
41219;SDS011;26951;47.338;9.196;2023-07-13T15:42:45;1.97;;;1.50;;
41219;SDS011;26951;47.338;9.196;2023-07-13T15:45:30;2.00;;;1.80;;
41219;SDS011;26951;47.338;9.196;2023-07-13T15:48:15;1.63;;;1.50;;
41219;SDS011;26951;47.338;9.196;2023-07-13T15:51:02;1.65;;;1.55;;
41219;SDS011;26951;47.338;9.196;2023-07-13T15:53:48;1.77;;;1.40;;
41219;SDS011;26951;47.338;9.196;2023-07-13T15:56:33;3.97;;;2.58;;
41219;SDS011;26951;47.338;9.196;2023-07-13T15:59:20;2.13;;;1.55;;
41219;SDS011;26951;47.338;9.196;2023-07-13T16:02:17;2.42;;;1.52;;
41219;SDS011;26951;47.338;9.196;2023-07-13T16:05:03;2.42;;;1.60;;
41219;SDS011;26951;47.338;9.196;2023-07-13T16:07:49;1.60;;;1.48;;
41219;SDS011;26951;47.338;9.196;2023-07-13T16:10:35;1.70;;;1.50;;
41219;SDS011;26951;47.338;9.196;2023-07-13T16:13:24;2.70;;;1.90;;
41219;SDS011;26951;47.338;9.196;2023-07-13T16:16:10;2.13;;;1.77;;
41219;SDS011;26951;47.338;9.196;2023-07-13T16:18:55;3.03;;;1.75;;
41219;SDS011;26951;47.338;9.196;2023-07-13T16:21:43;2.65;;;1.52;;
41219;SDS011;26951;47.338;9.196;2023-07-13T16:24:29;2.28;;;1.83;;
41219;SDS011;26951;47.338;9.196;2023-07-13T16:27:14;2.72;;;1.45;;
41219;SDS011;26951;47.338;9.196;2023-07-13T16:29:58;1.92;;;1.45;;
41219;SDS011;26951;47.338;9.196;2023-07-13T16:32:43;1.98;;;1.50;;
41219;SDS011;26951;47.338;9.196;2023-07-13T16:35:28;2.15;;;1.70;;
41219;SDS011;26951;47.338;9.196;2023-07-13T16:38:15;2.17;;;1.48;;
41219;SDS011;26951;47.338;9.196;2023-07-13T16:41:02;2.70;;;2.13;;
41219;SDS011;26951;47.338;9.196;2023-07-13T16:43:48;2.75;;;2.00;;
41219;SDS011;26951;47.338;9.196;2023-07-13T16:46:32;3.60;;;2.20;;
41219;SDS011;26951;47.338;9.196;2023-07-13T16:52:09;1.90;;;1.67;;
41219;SDS011;26951;47.338;9.196;2023-07-13T16:54:56;1.70;;;1.60;;
41219;SDS011;26951;47.338;9.196;2023-07-13T16:57:40;2.42;;;1.60;;
41219;SDS011;26951;47.338;9.196;2023-07-13T17:00:28;2.30;;;1.80;;
41219;SDS011;26951;47.338;9.196;2023-07-13T17:03:16;2.72;;;1.55;;
41219;SDS011;26951;47.338;9.196;2023-07-13T17:06:12;3.40;;;2.42;;
41219;SDS011;26951;47.338;9.196;2023-07-13T17:09:13;2.15;;;1.73;;
41219;SDS011;26951;47.338;9.196;2023-07-13T17:11:57;2.00;;;1.80;;
41219;SDS011;26951;47.338;9.196;2023-07-13T17:14:41;2.90;;;2.15;;
41219;SDS011;26951;47.338;9.196;2023-07-13T17:17:32;2.42;;;1.60;;
41219;SDS011;26951;47.338;9.196;2023-07-13T17:20:23;2.33;;;1.83;;
41219;SDS011;26951;47.338;9.196;2023-07-13T17:23:16;3.65;;;2.00;;
41219;SDS011;26951;47.338;9.196;2023-07-13T17:26:02;6.00;;;2.75;;
41219;SDS011;26951;47.338;9.196;2023-07-13T17:28:47;2.13;;;1.88;;
41219;SDS011;26951;47.338;9.196;2023-07-13T17:31:31;1.73;;;1.50;;
41219;SDS011;26951;47.338;9.196;2023-07-13T17:34:16;1.55;;;1.45;;
41219;SDS011;26951;47.338;9.196;2023-07-13T17:37:01;1.77;;;1.67;;
41219;SDS011;26951;47.338;9.196;2023-07-13T17:39:45;2.45;;;1.90;;